sensor_id;sensor_type;location;lat;lon;timestamp;temperature;humidity
37274;DHT22;23161;51.250;5.554;2023-07-02T00:01:36;16.50;99.90
37274;DHT22;23161;51.250;5.554;2023-07-02T00:04:02;16.50;99.90
37274;DHT22;23161;51.250;5.554;2023-07-02T00:06:28;16.40;99.90
37274;DHT22;23161;51.250;5.554;2023-07-02T00:08:54;16.30;99.90
37274;DHT22;23161;51.250;5.554;2023-07-02T00:11:20;16.30;99.90
37274;DHT22;23161;51.250;5.554;2023-07-02T00:13:46;16.30;99.90
37274;DHT22;23161;51.250;5.554;2023-07-02T00:16:12;16.30;99.90
37274;DHT22;23161;51.250;5.554;2023-07-02T00:18:37;16.20;99.90
37274;DHT22;23161;51.250;5.554;2023-07-02T00:21:05;16.20;99.90
37274;DHT22;23161;51.250;5.554;2023-07-02T00:23:32;16.30;99.90
37274;DHT22;23161;51.250;5.554;2023-07-02T00:25:58;16.20;99.90
37274;DHT22;23161;51.250;5.554;2023-07-02T00:28:24;16.20;99.90
37274;DHT22;23161;51.250;5.554;2023-07-02T00:30:50;16.20;99.90
37274;DHT22;23161;51.250;5.554;2023-07-02T00:33:16;16.20;99.90
37274;DHT22;23161;51.250;5.554;2023-07-02T00:35:42;16.20;99.90
37274;DHT22;23161;51.250;5.554;2023-07-02T00:38:07;16.20;99.90
37274;DHT22;23161;51.250;5.554;2023-07-02T00:40:35;16.20;99.90
37274;DHT22;23161;51.250;5.554;2023-07-02T00:43:02;16.20;99.90
37274;DHT22;23161;51.250;5.554;2023-07-02T00:45:29;16.20;99.90
37274;DHT22;23161;51.250;5.554;2023-07-02T00:47:55;16.20;99.90
37274;DHT22;23161;51.250;5.554;2023-07-02T00:50:22;16.10;99.90
37274;DHT22;23161;51.250;5.554;2023-07-02T00:52:49;16.10;99.90
37274;DHT22;23161;51.250;5.554;2023-07-02T00:55:15;16.20;99.90
37274;DHT22;23161;51.250;5.554;2023-07-02T00:57:41;16.10;99.90
37274;DHT22;23161;51.250;5.554;2023-07-02T01:00:12;16.20;99.90
37274;DHT22;23161;51.250;5.554;2023-07-02T01:02:39;16.20;99.90
37274;DHT22;23161;51.250;5.554;2023-07-02T01:05:14;16.20;99.90
37274;DHT22;23161;51.250;5.554;2023-07-02T01:07:42;16.20;99.90
37274;DHT22;23161;51.250;5.554;2023-07-02T01:10:08;16.20;99.90
37274;DHT22;23161;51.250;5.554;2023-07-02T01:12:35;16.20;99.90
37274;DHT22;23161;51.250;5.554;2023-07-02T01:15:03;16.20;99.90
37274;DHT22;23161;51.250;5.554;2023-07-02T01:17:32;16.10;99.90
37274;DHT22;23161;51.250;5.554;2023-07-02T01:20:11;16.10;99.90
37274;DHT22;23161;51.250;5.554;2023-07-02T01:22:37;16.10;99.90
37274;DHT22;23161;51.250;5.554;2023-07-02T01:25:04;16.10;99.90
37274;DHT22;23161;51.250;5.554;2023-07-02T01:27:31;16.00;99.90
37274;DHT22;23161;51.250;5.554;2023-07-02T01:29:57;16.00;99.90
37274;DHT22;23161;51.250;5.554;2023-07-02T01:32:23;16.10;99.90
37274;DHT22;23161;51.250;5.554;2023-07-02T01:34:50;16.10;99.90
37274;DHT22;23161;51.250;5.554;2023-07-02T01:37:19;16.10;99.90
37274;DHT22;23161;51.250;5.554;2023-07-02T01:39:45;16.10;99.90
37274;DHT22;23161;51.250;5.554;2023-07-02T01:42:13;16.10;99.90
37274;DHT22;23161;51.250;5.554;2023-07-02T01:44:42;16.10;99.90
37274;DHT22;23161;51.250;5.554;2023-07-02T01:47:08;16.10;99.90
37274;DHT22;23161;51.250;5.554;2023-07-02T01:49:34;16.10;99.90
37274;DHT22;23161;51.250;5.554;2023-07-02T01:52:02;16.10;99.90
37274;DHT22;23161;51.250;5.554;2023-07-02T01:54:29;16.20;99.90
37274;DHT22;23161;51.250;5.554;2023-07-02T01:56:57;16.10;99.90
37274;DHT22;23161;51.250;5.554;2023-07-02T01:59:23;16.20;99.90
37274;DHT22;23161;51.250;5.554;2023-07-02T02:01:49;16.20;99.90
37274;DHT22;23161;51.250;5.554;2023-07-02T02:04:16;16.20;99.90
37274;DHT22;23161;51.250;5.554;2023-07-02T02:06:43;16.30;99.90
37274;DHT22;23161;51.250;5.554;2023-07-02T02:09:09;16.20;99.90
37274;DHT22;23161;51.250;5.554;2023-07-02T02:11:41;16.20;99.90
37274;DHT22;23161;51.250;5.554;2023-07-02T02:14:07;16.20;99.90
37274;DHT22;23161;51.250;5.554;2023-07-02T02:16:33;16.20;99.90
37274;DHT22;23161;51.250;5.554;2023-07-02T02:19:02;16.20;99.90
37274;DHT22;23161;51.250;5.554;2023-07-02T02:21:29;16.20;99.90
37274;DHT22;23161;51.250;5.554;2023-07-02T02:23:55;16.20;99.90
37274;DHT22;23161;51.250;5.554;2023-07-02T02:26:22;16.10;99.90
37274;DHT22;23161;51.250;5.554;2023-07-02T02:28:48;16.10;99.90
37274;DHT22;23161;51.250;5.554;2023-07-02T02:31:15;16.10;99.90
37274;DHT22;23161;51.250;5.554;2023-07-02T02:33:41;16.00;99.90
37274;DHT22;23161;51.250;5.554;2023-07-02T02:36:07;16.00;99.90
37274;DHT22;23161;51.250;5.554;2023-07-02T02:38:33;15.90;99.90
37274;DHT22;23161;51.250;5.554;2023-07-02T02:41:01;15.80;99.90
37274;DHT22;23161;51.250;5.554;2023-07-02T02:43:31;15.80;99.90
37274;DHT22;23161;51.250;5.554;2023-07-02T02:45:58;15.80;99.90
37274;DHT22;23161;51.250;5.554;2023-07-02T02:48:26;15.80;99.90
37274;DHT22;23161;51.250;5.554;2023-07-02T02:50:52;15.80;99.90
37274;DHT22;23161;51.250;5.554;2023-07-02T02:53:17;15.80;99.90
37274;DHT22;23161;51.250;5.554;2023-07-02T02:55:43;15.80;99.90
37274;DHT22;23161;51.250;5.554;2023-07-02T02:58:09;15.90;99.90
37274;DHT22;23161;51.250;5.554;2023-07-02T03:00:35;15.90;99.90
37274;DHT22;23161;51.250;5.554;2023-07-02T03:03:01;15.90;99.90
37274;DHT22;23161;51.250;5.554;2023-07-02T03:05:28;15.80;99.90
37274;DHT22;23161;51.250;5.554;2023-07-02T03:07:54;15.90;99.90
37274;DHT22;23161;51.250;5.554;2023-07-02T03:10:20;15.80;99.90
37274;DHT22;23161;51.250;5.554;2023-07-02T03:12:47;15.80;99.90
37274;DHT22;23161;51.250;5.554;2023-07-02T03:15:13;15.90;99.90
37274;DHT22;23161;51.250;5.554;2023-07-02T03:17:39;15.80;99.90
37274;DHT22;23161;51.250;5.554;2023-07-02T03:20:05;15.80;99.90
37274;DHT22;23161;51.250;5.554;2023-07-02T03:22:33;15.80;99.90
37274;DHT22;23161;51.250;5.554;2023-07-02T03:25:00;15.70;99.90
37274;DHT22;23161;51.250;5.554;2023-07-02T03:27:26;15.70;99.90
37274;DHT22;23161;51.250;5.554;2023-07-02T03:29:52;15.70;99.90
37274;DHT22;23161;51.250;5.554;2023-07-02T03:32:18;15.70;99.90
37274;DHT22;23161;51.250;5.554;2023-07-02T03:34:44;15.70;99.90
37274;DHT22;23161;51.250;5.554;2023-07-02T03:37:09;15.70;99.90
37274;DHT22;23161;51.250;5.554;2023-07-02T03:39:35;15.70;99.90
37274;DHT22;23161;51.250;5.554;2023-07-02T03:42:01;15.70;99.90
37274;DHT22;23161;51.250;5.554;2023-07-02T03:44:27;15.70;99.90
37274;DHT22;23161;51.250;5.554;2023-07-02T03:46:53;15.70;99.90
37274;DHT22;23161;51.250;5.554;2023-07-02T03:49:19;15.70;99.90
37274;DHT22;23161;51.250;5.554;2023-07-02T03:51:45;15.70;99.90
37274;DHT22;23161;51.250;5.554;2023-07-02T03:54:11;15.70;99.90
37274;DHT22;23161;51.250;5.554;2023-07-02T03:56:37;15.70;99.90
37274;DHT22;23161;51.250;5.554;2023-07-02T03:59:02;15.70;99.90
37274;DHT22;23161;51.250;5.554;2023-07-02T04:01:28;15.70;99.90
37274;DHT22;23161;51.250;5.554;2023-07-02T04:03:54;15.70;99.90
37274;DHT22;23161;51.250;5.554;2023-07-02T04:06:21;15.70;99.90
37274;DHT22;23161;51.250;5.554;2023-07-02T04:08:47;15.70;99.90
37274;DHT22;23161;51.250;5.554;2023-07-02T04:11:13;15.80;99.90
37274;DHT22;23161;51.250;5.554;2023-07-02T04:13:39;15.80;99.90
37274;DHT22;23161;51.250;5.554;2023-07-02T04:16:05;15.80;99.90
37274;DHT22;23161;51.250;5.554;2023-07-02T04:18:31;15.70;99.90
37274;DHT22;23161;51.250;5.554;2023-07-02T04:20:57;15.70;99.90
37274;DHT22;23161;51.250;5.554;2023-07-02T04:23:25;15.70;99.90
37274;DHT22;23161;51.250;5.554;2023-07-02T04:25:50;15.70;99.90
37274;DHT22;23161;51.250;5.554;2023-07-02T04:28:16;15.80;99.90
37274;DHT22;23161;51.250;5.554;2023-07-02T04:30:43;15.80;99.90
37274;DHT22;23161;51.250;5.554;2023-07-02T04:33:09;15.90;99.90
37274;DHT22;23161;51.250;5.554;2023-07-02T04:35:34;16.10;99.90
37274;DHT22;23161;51.250;5.554;2023-07-02T04:38:01;16.20;99.90
37274;DHT22;23161;51.250;5.554;2023-07-02T04:40:27;16.30;99.90
37274;DHT22;23161;51.250;5.554;2023-07-02T04:42:53;16.80;99.90
37274;DHT22;23161;51.250;5.554;2023-07-02T04:45:26;17.30;99.90
37274;DHT22;23161;51.250;5.554;2023-07-02T04:47:52;17.60;99.90
37274;DHT22;23161;51.250;5.554;2023-07-02T04:50:18;17.80;99.90
37274;DHT22;23161;51.250;5.554;2023-07-02T04:52:45;17.90;99.90
37274;DHT22;23161;51.250;5.554;2023-07-02T04:55:11;17.80;99.90
37274;DHT22;23161;51.250;5.554;2023-07-02T04:57:37;18.40;99.90
37274;DHT22;23161;51.250;5.554;2023-07-02T05:00:04;19.30;99.90
37274;DHT22;23161;51.250;5.554;2023-07-02T05:02:32;19.30;99.90
37274;DHT22;23161;51.250;5.554;2023-07-02T05:04:58;20.40;99.90
37274;DHT22;23161;51.250;5.554;2023-07-02T05:07:25;20.20;99.90
37274;DHT22;23161;51.250;5.554;2023-07-02T05:09:51;20.40;99.90
37274;DHT22;23161;51.250;5.554;2023-07-02T05:12:19;20.30;99.90
37274;DHT22;23161;51.250;5.554;2023-07-02T05:14:45;20.40;99.90
37274;DHT22;23161;51.250;5.554;2023-07-02T05:17:11;20.20;99.90
37274;DHT22;23161;51.250;5.554;2023-07-02T05:19:40;20.30;99.90
37274;DHT22;23161;51.250;5.554;2023-07-02T05:22:06;20.40;99.90
37274;DHT22;23161;51.250;5.554;2023-07-02T05:24:32;20.50;99.90
37274;DHT22;23161;51.250;5.554;2023-07-02T05:26:58;19.90;99.90
37274;DHT22;23161;51.250;5.554;2023-07-02T05:29:24;19.70;99.90
37274;DHT22;23161;51.250;5.554;2023-07-02T05:31:50;19.50;99.90
37274;DHT22;23161;51.250;5.554;2023-07-02T05:34:16;19.40;99.90
37274;DHT22;23161;51.250;5.554;2023-07-02T05:36:42;19.90;99.90
37274;DHT22;23161;51.250;5.554;2023-07-02T05:39:08;19.90;99.90
37274;DHT22;23161;51.250;5.554;2023-07-02T05:41:34;20.20;99.90
37274;DHT22;23161;51.250;5.554;2023-07-02T05:44:00;20.40;99.90
37274;DHT22;23161;51.250;5.554;2023-07-02T05:46:26;20.20;99.90
37274;DHT22;23161;51.250;5.554;2023-07-02T05:48:51;20.00;99.90
37274;DHT22;23161;51.250;5.554;2023-07-02T05:51:21;19.90;99.90
37274;DHT22;23161;51.250;5.554;2023-07-02T05:53:47;20.00;99.90
37274;DHT22;23161;51.250;5.554;2023-07-02T05:56:13;20.10;99.90
37274;DHT22;23161;51.250;5.554;2023-07-02T05:58:39;20.70;99.90
37274;DHT22;23161;51.250;5.554;2023-07-02T06:01:05;21.30;99.90
37274;DHT22;23161;51.250;5.554;2023-07-02T06:03:31;21.60;99.90
37274;DHT22;23161;51.250;5.554;2023-07-02T06:05:58;23.10;99.90
37274;DHT22;23161;51.250;5.554;2023-07-02T06:08:24;23.30;99.90
37274;DHT22;23161;51.250;5.554;2023-07-02T06:10:50;24.10;99.90
37274;DHT22;23161;51.250;5.554;2023-07-02T06:13:16;23.40;99.90
37274;DHT22;23161;51.250;5.554;2023-07-02T06:15:42;23.30;99.90
37274;DHT22;23161;51.250;5.554;2023-07-02T06:18:08;22.90;99.90
37274;DHT22;23161;51.250;5.554;2023-07-02T06:20:34;23.40;99.90
37274;DHT22;23161;51.250;5.554;2023-07-02T06:23:00;22.80;99.90
37274;DHT22;23161;51.250;5.554;2023-07-02T06:25:26;22.90;99.90
37274;DHT22;23161;51.250;5.554;2023-07-02T06:27:52;22.60;99.90
37274;DHT22;23161;51.250;5.554;2023-07-02T06:30:21;23.60;99.90
37274;DHT22;23161;51.250;5.554;2023-07-02T06:32:47;25.30;99.00
37274;DHT22;23161;51.250;5.554;2023-07-02T06:35:13;26.90;97.10
37274;DHT22;23161;51.250;5.554;2023-07-02T06:37:39;27.90;94.90
37274;DHT22;23161;51.250;5.554;2023-07-02T06:40:05;27.80;93.00
37274;DHT22;23161;51.250;5.554;2023-07-02T06:42:31;27.30;93.50
37274;DHT22;23161;51.250;5.554;2023-07-02T06:44:59;27.70;90.50
37274;DHT22;23161;51.250;5.554;2023-07-02T06:47:25;28.20;90.70
37274;DHT22;23161;51.250;5.554;2023-07-02T06:49:52;28.40;90.20
37274;DHT22;23161;51.250;5.554;2023-07-02T06:52:18;28.50;88.70
37274;DHT22;23161;51.250;5.554;2023-07-02T06:54:44;29.60;85.60
37274;DHT22;23161;51.250;5.554;2023-07-02T06:57:10;32.00;83.10
37274;DHT22;23161;51.250;5.554;2023-07-02T06:59:36;32.90;78.60
37274;DHT22;23161;51.250;5.554;2023-07-02T07:02:02;34.20;75.80
37274;DHT22;23161;51.250;5.554;2023-07-02T07:04:29;33.10;71.60
37274;DHT22;23161;51.250;5.554;2023-07-02T07:06:55;32.70;72.00
37274;DHT22;23161;51.250;5.554;2023-07-02T07:09:23;30.50;74.40
37274;DHT22;23161;51.250;5.554;2023-07-02T07:11:49;30.10;75.30
37274;DHT22;23161;51.250;5.554;2023-07-02T07:14:16;31.60;74.00
37274;DHT22;23161;51.250;5.554;2023-07-02T07:16:42;31.00;72.60
37274;DHT22;23161;51.250;5.554;2023-07-02T07:19:08;29.80;72.00
37274;DHT22;23161;51.250;5.554;2023-07-02T07:21:34;28.60;75.80
37274;DHT22;23161;51.250;5.554;2023-07-02T07:24:00;28.10;75.30
37274;DHT22;23161;51.250;5.554;2023-07-02T07:26:26;27.70;74.20
37274;DHT22;23161;51.250;5.554;2023-07-02T07:28:52;27.50;76.10
37274;DHT22;23161;51.250;5.554;2023-07-02T07:31:20;27.80;75.50
37274;DHT22;23161;51.250;5.554;2023-07-02T07:33:45;29.50;72.40
37274;DHT22;23161;51.250;5.554;2023-07-02T07:36:11;30.10;73.10
37274;DHT22;23161;51.250;5.554;2023-07-02T07:38:37;30.60;71.20
37274;DHT22;23161;51.250;5.554;2023-07-02T07:41:03;32.00;70.80
37274;DHT22;23161;51.250;5.554;2023-07-02T07:43:29;32.70;69.50
37274;DHT22;23161;51.250;5.554;2023-07-02T07:45:55;34.30;68.00
37274;DHT22;23161;51.250;5.554;2023-07-02T07:48:21;34.80;66.50
37274;DHT22;23161;51.250;5.554;2023-07-02T07:50:47;35.90;66.40
37274;DHT22;23161;51.250;5.554;2023-07-02T07:53:13;34.00;65.70
37274;DHT22;23161;51.250;5.554;2023-07-02T07:55:39;30.50;67.00
37274;DHT22;23161;51.250;5.554;2023-07-02T07:58:04;28.30;71.60
37274;DHT22;23161;51.250;5.554;2023-07-02T08:00:30;26.20;73.00
37274;DHT22;23161;51.250;5.554;2023-07-02T08:02:56;24.10;77.10
37274;DHT22;23161;51.250;5.554;2023-07-02T08:05:22;23.00;80.80
37274;DHT22;23161;51.250;5.554;2023-07-02T08:07:48;22.00;83.60
37274;DHT22;23161;51.250;5.554;2023-07-02T08:10:14;21.40;86.30
37274;DHT22;23161;51.250;5.554;2023-07-02T08:12:40;20.80;89.60
37274;DHT22;23161;51.250;5.554;2023-07-02T08:15:06;20.60;91.10
37274;DHT22;23161;51.250;5.554;2023-07-02T08:17:32;20.00;91.50
37274;DHT22;23161;51.250;5.554;2023-07-02T08:19:58;20.00;91.80
37274;DHT22;23161;51.250;5.554;2023-07-02T08:22:24;19.90;92.00
37274;DHT22;23161;51.250;5.554;2023-07-02T08:24:50;19.60;92.40
37274;DHT22;23161;51.250;5.554;2023-07-02T08:27:16;19.40;93.50
37274;DHT22;23161;51.250;5.554;2023-07-02T08:29:46;19.30;93.60
37274;DHT22;23161;51.250;5.554;2023-07-02T08:32:12;19.70;95.90
37274;DHT22;23161;51.250;5.554;2023-07-02T08:34:38;19.80;94.20
37274;DHT22;23161;51.250;5.554;2023-07-02T08:37:04;20.50;93.90
37274;DHT22;23161;51.250;5.554;2023-07-02T08:39:30;20.80;93.40
37274;DHT22;23161;51.250;5.554;2023-07-02T08:41:56;20.80;92.50
37274;DHT22;23161;51.250;5.554;2023-07-02T08:44:22;21.00;92.60
37274;DHT22;23161;51.250;5.554;2023-07-02T08:46:48;20.90;92.50
37274;DHT22;23161;51.250;5.554;2023-07-02T08:49:16;21.00;92.70
37274;DHT22;23161;51.250;5.554;2023-07-02T08:51:45;21.20;92.70
37274;DHT22;23161;51.250;5.554;2023-07-02T08:54:11;22.30;91.60
37274;DHT22;23161;51.250;5.554;2023-07-02T08:56:38;23.00;91.70
37274;DHT22;23161;51.250;5.554;2023-07-02T08:59:09;24.30;88.10
37274;DHT22;23161;51.250;5.554;2023-07-02T09:01:48;27.10;82.70
37274;DHT22;23161;51.250;5.554;2023-07-02T09:04:25;30.10;78.00
37274;DHT22;23161;51.250;5.554;2023-07-02T09:09:28;28.80;73.80
37274;DHT22;23161;51.250;5.554;2023-07-02T09:11:54;28.90;72.40
37274;DHT22;23161;51.250;5.554;2023-07-02T09:14:30;27.90;73.30
37274;DHT22;23161;51.250;5.554;2023-07-02T09:17:07;27.60;71.90
37274;DHT22;23161;51.250;5.554;2023-07-02T09:19:35;27.20;72.20
37274;DHT22;23161;51.250;5.554;2023-07-02T09:22:02;27.60;71.20
37274;DHT22;23161;51.250;5.554;2023-07-02T09:24:29;28.80;72.00
37274;DHT22;23161;51.250;5.554;2023-07-02T09:26:58;30.30;67.50
37274;DHT22;23161;51.250;5.554;2023-07-02T09:29:29;30.20;68.10
37274;DHT22;23161;51.250;5.554;2023-07-02T09:32:00;30.20;68.10
37274;DHT22;23161;51.250;5.554;2023-07-02T09:34:27;31.30;64.80
37274;DHT22;23161;51.250;5.554;2023-07-02T09:36:54;31.00;65.00
37274;DHT22;23161;51.250;5.554;2023-07-02T09:39:24;29.90;64.80
37274;DHT22;23161;51.250;5.554;2023-07-02T09:41:51;29.90;68.00
37274;DHT22;23161;51.250;5.554;2023-07-02T09:44:18;29.00;64.50
37274;DHT22;23161;51.250;5.554;2023-07-02T09:47:05;30.40;65.60
37274;DHT22;23161;51.250;5.554;2023-07-02T09:49:57;29.80;66.30
37274;DHT22;23161;51.250;5.554;2023-07-02T09:52:21;28.90;65.40
37274;DHT22;23161;51.250;5.554;2023-07-02T09:54:47;28.30;67.30
37274;DHT22;23161;51.250;5.554;2023-07-02T09:57:14;27.40;69.10
37274;DHT22;23161;51.250;5.554;2023-07-02T09:59:40;26.50;68.50
37274;DHT22;23161;51.250;5.554;2023-07-02T10:02:10;26.20;71.80
37274;DHT22;23161;51.250;5.554;2023-07-02T10:04:45;25.70;71.50
37274;DHT22;23161;51.250;5.554;2023-07-02T10:07:12;26.10;72.40
37274;DHT22;23161;51.250;5.554;2023-07-02T10:09:43;26.00;71.00
37274;DHT22;23161;51.250;5.554;2023-07-02T10:12:20;26.20;71.10
37274;DHT22;23161;51.250;5.554;2023-07-02T10:14:48;26.40;70.10
37274;DHT22;23161;51.250;5.554;2023-07-02T10:17:24;26.40;70.30
37274;DHT22;23161;51.250;5.554;2023-07-02T10:19:53;27.40;69.70
37274;DHT22;23161;51.250;5.554;2023-07-02T10:22:20;27.20;69.90
37274;DHT22;23161;51.250;5.554;2023-07-02T10:24:56;26.90;69.40
37274;DHT22;23161;51.250;5.554;2023-07-02T10:27:38;26.50;69.70
37274;DHT22;23161;51.250;5.554;2023-07-02T10:30:06;29.20;73.30
37274;DHT22;23161;51.250;5.554;2023-07-02T10:32:35;29.10;69.10
37274;DHT22;23161;51.250;5.554;2023-07-02T10:35:22;29.20;68.70
37274;DHT22;23161;51.250;5.554;2023-07-02T10:37:48;29.40;68.90
37274;DHT22;23161;51.250;5.554;2023-07-02T10:40:14;29.60;67.30
37274;DHT22;23161;51.250;5.554;2023-07-02T10:45:13;28.70;67.90
37274;DHT22;23161;51.250;5.554;2023-07-02T10:47:40;28.10;69.50
37274;DHT22;23161;51.250;5.554;2023-07-02T10:50:22;26.70;72.10
37274;DHT22;23161;51.250;5.554;2023-07-02T10:52:49;25.50;71.50
37274;DHT22;23161;51.250;5.554;2023-07-02T10:55:21;24.80;73.10
37274;DHT22;23161;51.250;5.554;2023-07-02T10:57:48;24.30;73.50
37274;DHT22;23161;51.250;5.554;2023-07-02T11:00:16;24.30;74.30
37274;DHT22;23161;51.250;5.554;2023-07-02T11:02:43;25.30;73.30
37274;DHT22;23161;51.250;5.554;2023-07-02T11:05:09;25.30;73.80
37274;DHT22;23161;51.250;5.554;2023-07-02T11:07:40;26.30;73.80
37274;DHT22;23161;51.250;5.554;2023-07-02T11:10:07;27.20;72.50
37274;DHT22;23161;51.250;5.554;2023-07-02T11:12:34;27.30;73.00
37274;DHT22;23161;51.250;5.554;2023-07-02T11:15:14;27.60;70.30
37274;DHT22;23161;51.250;5.554;2023-07-02T11:17:41;27.70;70.90
37274;DHT22;23161;51.250;5.554;2023-07-02T11:20:09;27.50;70.80
37274;DHT22;23161;51.250;5.554;2023-07-02T11:22:36;26.60;72.00
37274;DHT22;23161;51.250;5.554;2023-07-02T11:25:10;26.10;73.60
37274;DHT22;23161;51.250;5.554;2023-07-02T11:27:36;25.10;74.20
37274;DHT22;23161;51.250;5.554;2023-07-02T11:30:02;24.10;77.10
37274;DHT22;23161;51.250;5.554;2023-07-02T11:32:28;24.20;77.00
37274;DHT22;23161;51.250;5.554;2023-07-02T11:34:54;25.20;75.80
37274;DHT22;23161;51.250;5.554;2023-07-02T11:37:20;25.90;75.60
37274;DHT22;23161;51.250;5.554;2023-07-02T11:39:46;25.90;75.00
37274;DHT22;23161;51.250;5.554;2023-07-02T11:42:12;25.70;73.70
37274;DHT22;23161;51.250;5.554;2023-07-02T11:44:38;25.50;75.60
37274;DHT22;23161;51.250;5.554;2023-07-02T11:47:04;25.60;75.60
37274;DHT22;23161;51.250;5.554;2023-07-02T11:49:30;25.40;75.60
37274;DHT22;23161;51.250;5.554;2023-07-02T11:51:56;25.20;75.70
37274;DHT22;23161;51.250;5.554;2023-07-02T11:54:22;24.90;76.60
37274;DHT22;23161;51.250;5.554;2023-07-02T11:56:48;24.90;77.50
37274;DHT22;23161;51.250;5.554;2023-07-02T11:59:14;24.70;78.70
37274;DHT22;23161;51.250;5.554;2023-07-02T12:01:39;24.60;79.00
37274;DHT22;23161;51.250;5.554;2023-07-02T12:04:05;24.80;78.30
37274;DHT22;23161;51.250;5.554;2023-07-02T12:06:33;25.20;77.70
37274;DHT22;23161;51.250;5.554;2023-07-02T12:08:59;25.70;78.40
37274;DHT22;23161;51.250;5.554;2023-07-02T12:11:25;26.00;77.30
37274;DHT22;23161;51.250;5.554;2023-07-02T12:13:51;26.50;75.70
37274;DHT22;23161;51.250;5.554;2023-07-02T12:16:17;26.40;75.80
37274;DHT22;23161;51.250;5.554;2023-07-02T12:18:42;25.70;75.80
37274;DHT22;23161;51.250;5.554;2023-07-02T12:21:08;26.10;77.40
37274;DHT22;23161;51.250;5.554;2023-07-02T12:23:35;26.20;74.90
37274;DHT22;23161;51.250;5.554;2023-07-02T12:26:01;26.00;76.70
37274;DHT22;23161;51.250;5.554;2023-07-02T12:28:27;25.60;76.50
37274;DHT22;23161;51.250;5.554;2023-07-02T12:30:53;24.90;75.70
37274;DHT22;23161;51.250;5.554;2023-07-02T12:33:18;24.60;77.50
37274;DHT22;23161;51.250;5.554;2023-07-02T12:35:44;24.40;78.20
37274;DHT22;23161;51.250;5.554;2023-07-02T12:38:12;24.50;78.60
37274;DHT22;23161;51.250;5.554;2023-07-02T12:40:38;24.90;78.30
37274;DHT22;23161;51.250;5.554;2023-07-02T12:43:04;24.70;77.10
37274;DHT22;23161;51.250;5.554;2023-07-02T12:45:29;24.80;79.10
37274;DHT22;23161;51.250;5.554;2023-07-02T12:47:57;24.50;79.80
37274;DHT22;23161;51.250;5.554;2023-07-02T12:50:23;24.30;80.50
37274;DHT22;23161;51.250;5.554;2023-07-02T12:52:48;24.10;79.40
37274;DHT22;23161;51.250;5.554;2023-07-02T12:55:21;24.30;83.40
37274;DHT22;23161;51.250;5.554;2023-07-02T12:57:47;25.10;78.20
37274;DHT22;23161;51.250;5.554;2023-07-02T13:00:13;25.40;79.50
37274;DHT22;23161;51.250;5.554;2023-07-02T13:02:39;25.60;77.40
37274;DHT22;23161;51.250;5.554;2023-07-02T13:05:05;25.50;78.50
37274;DHT22;23161;51.250;5.554;2023-07-02T13:07:31;24.80;76.80
37274;DHT22;23161;51.250;5.554;2023-07-02T13:09:56;24.40;77.50
37274;DHT22;23161;51.250;5.554;2023-07-02T13:12:22;24.70;76.70
37274;DHT22;23161;51.250;5.554;2023-07-02T13:14:48;24.90;79.40
37274;DHT22;23161;51.250;5.554;2023-07-02T13:17:14;24.90;77.00
37274;DHT22;23161;51.250;5.554;2023-07-02T13:19:40;25.40;76.50
37274;DHT22;23161;51.250;5.554;2023-07-02T13:22:06;25.40;75.10
37274;DHT22;23161;51.250;5.554;2023-07-02T13:24:33;25.40;72.80
37274;DHT22;23161;51.250;5.554;2023-07-02T13:27:04;25.80;73.70
37274;DHT22;23161;51.250;5.554;2023-07-02T13:29:31;26.00;72.40
37274;DHT22;23161;51.250;5.554;2023-07-02T13:31:57;25.70;72.70
37274;DHT22;23161;51.250;5.554;2023-07-02T13:34:23;25.40;71.60
37274;DHT22;23161;51.250;5.554;2023-07-02T13:36:48;25.50;72.50
37274;DHT22;23161;51.250;5.554;2023-07-02T13:39:14;25.80;72.90
37274;DHT22;23161;51.250;5.554;2023-07-02T13:41:40;26.10;73.30
37274;DHT22;23161;51.250;5.554;2023-07-02T13:44:06;26.00;73.50
37274;DHT22;23161;51.250;5.554;2023-07-02T13:46:32;25.60;71.80
37274;DHT22;23161;51.250;5.554;2023-07-02T13:48:57;25.60;75.30
37274;DHT22;23161;51.250;5.554;2023-07-02T13:51:23;25.70;74.60
37274;DHT22;23161;51.250;5.554;2023-07-02T13:53:49;25.40;75.90
37274;DHT22;23161;51.250;5.554;2023-07-02T13:56:15;25.40;76.10
37274;DHT22;23161;51.250;5.554;2023-07-02T13:59:07;25.10;74.90
37274;DHT22;23161;51.250;5.554;2023-07-02T14:01:33;25.20;74.80
37274;DHT22;23161;51.250;5.554;2023-07-02T14:04:00;25.10;73.50
37274;DHT22;23161;51.250;5.554;2023-07-02T14:06:27;25.10;74.00
37274;DHT22;23161;51.250;5.554;2023-07-02T14:08:53;24.90;74.10
37274;DHT22;23161;51.250;5.554;2023-07-02T14:11:19;25.00;74.00
37274;DHT22;23161;51.250;5.554;2023-07-02T14:13:45;25.30;73.00
37274;DHT22;23161;51.250;5.554;2023-07-02T14:16:11;25.40;72.50
37274;DHT22;23161;51.250;5.554;2023-07-02T14:18:37;25.30;74.80
37274;DHT22;23161;51.250;5.554;2023-07-02T14:21:03;25.10;73.70
37274;DHT22;23161;51.250;5.554;2023-07-02T14:23:29;24.60;73.20
37274;DHT22;23161;51.250;5.554;2023-07-02T14:25:55;24.60;74.90
37274;DHT22;23161;51.250;5.554;2023-07-02T14:28:22;24.70;74.30
37274;DHT22;23161;51.250;5.554;2023-07-02T14:30:48;25.10;74.30
37274;DHT22;23161;51.250;5.554;2023-07-02T14:33:15;25.10;73.70
37274;DHT22;23161;51.250;5.554;2023-07-02T14:35:41;24.80;74.40
37274;DHT22;23161;51.250;5.554;2023-07-02T14:38:07;25.20;74.30
37274;DHT22;23161;51.250;5.554;2023-07-02T14:40:32;25.30;74.50
37274;DHT22;23161;51.250;5.554;2023-07-02T14:42:58;25.30;75.50
37274;DHT22;23161;51.250;5.554;2023-07-02T14:45:24;25.60;75.60
37274;DHT22;23161;51.250;5.554;2023-07-02T14:47:50;25.20;75.30
37274;DHT22;23161;51.250;5.554;2023-07-02T14:50:16;24.60;75.70
37274;DHT22;23161;51.250;5.554;2023-07-02T14:52:42;24.70;77.60
37274;DHT22;23161;51.250;5.554;2023-07-02T14:55:08;24.70;76.20
37274;DHT22;23161;51.250;5.554;2023-07-02T14:57:34;24.80;75.00
37274;DHT22;23161;51.250;5.554;2023-07-02T14:59:59;24.90;76.60
37274;DHT22;23161;51.250;5.554;2023-07-02T15:02:25;25.20;75.70
37274;DHT22;23161;51.250;5.554;2023-07-02T15:04:52;25.20;76.90
37274;DHT22;23161;51.250;5.554;2023-07-02T15:07:18;25.20;73.80
37274;DHT22;23161;51.250;5.554;2023-07-02T15:09:43;24.70;75.20
37274;DHT22;23161;51.250;5.554;2023-07-02T15:12:09;24.70;77.40
37274;DHT22;23161;51.250;5.554;2023-07-02T15:14:35;24.70;76.20
37274;DHT22;23161;51.250;5.554;2023-07-02T15:17:01;24.50;76.10
37274;DHT22;23161;51.250;5.554;2023-07-02T15:19:27;24.50;74.30
37274;DHT22;23161;51.250;5.554;2023-07-02T15:21:53;24.40;76.60
37274;DHT22;23161;51.250;5.554;2023-07-02T15:24:19;24.10;76.90
37274;DHT22;23161;51.250;5.554;2023-07-02T15:26:45;24.10;76.40
37274;DHT22;23161;51.250;5.554;2023-07-02T15:29:11;23.90;75.80
37274;DHT22;23161;51.250;5.554;2023-07-02T15:31:37;24.00;75.80
37274;DHT22;23161;51.250;5.554;2023-07-02T15:34:06;24.10;76.00